Kingston, Jamaica
Current Conditions -  °F | °C
As of 12:00 PM on Thursday 23 Oct 2014 (Local Time) from MKJP Reporting Station
Few Clouds Few Clouds  
Wind Chill: 88°   Ceiling: Unl
Heat Index: 100°   Visibility: 6mi
Dew Point: 77°   Wind: 14mph
Humidity: 70%   Direction: 150°SSE
Pressure: 29.85"   Gusts: NA
Location:  17.99°N, 76.8°W
Report Text: MKJP 231700Z 15012KT 9999 FEW022 31/25 Q1011
Loading
Personal Weather Stations






























Interactive Weather Map
Tropical Storm Tracking
New forecast layout! Learn more

10-Day Weather Forecast

Advertisements
Track Severe Weather on mobile